sensor_id;sensor_type;location;lat;lon;timestamp;P1;durP1;ratioP1;P2;durP2;ratioP2
32932;SDS011;19444;50.518;10.870;2022-11-23T00:00:21;4.65;;;2.47;;
32932;SDS011;19444;50.518;10.870;2022-11-23T00:03:18;4.07;;;2.90;;
32932;SDS011;19444;50.518;10.870;2022-11-23T00:06:15;5.05;;;2.97;;
32932;SDS011;19444;50.518;10.870;2022-11-23T00:09:13;7.47;;;3.47;;
32932;SDS011;19444;50.518;10.870;2022-11-23T00:12:10;6.28;;;3.20;;
32932;SDS011;19444;50.518;10.870;2022-11-23T00:15:07;6.20;;;3.53;;
32932;SDS011;19444;50.518;10.870;2022-11-23T00:18:05;5.25;;;3.47;;
32932;SDS011;19444;50.518;10.870;2022-11-23T00:21:09;6.57;;;3.22;;
32932;SDS011;19444;50.518;10.870;2022-11-23T00:24:12;10.95;;;4.28;;
32932;SDS011;19444;50.518;10.870;2022-11-23T00:27:09;7.28;;;3.28;;
32932;SDS011;19444;50.518;10.870;2022-11-23T00:30:06;4.68;;;3.00;;
32932;SDS011;19444;50.518;10.870;2022-11-23T00:33:04;5.93;;;3.20;;
32932;SDS011;19444;50.518;10.870;2022-11-23T00:36:02;4.45;;;2.78;;
32932;SDS011;19444;50.518;10.870;2022-11-23T00:39:04;9.02;;;3.85;;
32932;SDS011;19444;50.518;10.870;2022-11-23T00:42:00;6.28;;;3.58;;
32932;SDS011;19444;50.518;10.870;2022-11-23T00:44:57;7.70;;;3.33;;
32932;SDS011;19444;50.518;10.870;2022-11-23T00:47:54;5.03;;;2.85;;
32932;SDS011;19444;50.518;10.870;2022-11-23T00:50:51;6.53;;;2.95;;
32932;SDS011;19444;50.518;10.870;2022-11-23T00:53:49;8.05;;;3.20;;
32932;SDS011;19444;50.518;10.870;2022-11-23T00:56:46;5.85;;;3.00;;
32932;SDS011;19444;50.518;10.870;2022-11-23T00:59:43;4.78;;;2.85;;
32932;SDS011;19444;50.518;10.870;2022-11-23T01:02:40;6.05;;;3.15;;
32932;SDS011;19444;50.518;10.870;2022-11-23T01:05:37;5.60;;;2.83;;
32932;SDS011;19444;50.518;10.870;2022-11-23T01:08:35;7.32;;;3.83;;
32932;SDS011;19444;50.518;10.870;2022-11-23T01:11:32;7.07;;;3.35;;
32932;SDS011;19444;50.518;10.870;2022-11-23T01:14:30;6.82;;;3.45;;
32932;SDS011;19444;50.518;10.870;2022-11-23T01:17:27;6.57;;;2.88;;
32932;SDS011;19444;50.518;10.870;2022-11-23T01:20:24;7.18;;;3.10;;
32932;SDS011;19444;50.518;10.870;2022-11-23T01:23:21;4.93;;;2.95;;
32932;SDS011;19444;50.518;10.870;2022-11-23T01:26:18;6.28;;;3.03;;
32932;SDS011;19444;50.518;10.870;2022-11-23T01:29:16;6.30;;;3.20;;
32932;SDS011;19444;50.518;10.870;2022-11-23T01:32:12;4.50;;;2.47;;
32932;SDS011;19444;50.518;10.870;2022-11-23T01:35:09;3.58;;;2.00;;
32932;SDS011;19444;50.518;10.870;2022-11-23T01:38:06;6.05;;;2.58;;
32932;SDS011;19444;50.518;10.870;2022-11-23T01:41:06;5.32;;;2.50;;
32932;SDS011;19444;50.518;10.870;2022-11-23T01:44:23;6.07;;;2.38;;
32932;SDS011;19444;50.518;10.870;2022-11-23T01:47:26;4.13;;;2.17;;
32932;SDS011;19444;50.518;10.870;2022-11-23T01:50:23;5.32;;;3.85;;
32932;SDS011;19444;50.518;10.870;2022-11-23T01:53:21;4.80;;;2.75;;
32932;SDS011;19444;50.518;10.870;2022-11-23T01:56:19;6.78;;;2.58;;
32932;SDS011;19444;50.518;10.870;2022-11-23T01:59:22;6.43;;;2.58;;
32932;SDS011;19444;50.518;10.870;2022-11-23T02:02:20;8.13;;;2.70;;
32932;SDS011;19444;50.518;10.870;2022-11-23T02:05:17;4.40;;;2.63;;
32932;SDS011;19444;50.518;10.870;2022-11-23T02:08:19;5.88;;;2.67;;
32932;SDS011;19444;50.518;10.870;2022-11-23T02:11:17;5.18;;;2.97;;
32932;SDS011;19444;50.518;10.870;2022-11-23T02:14:14;4.15;;;2.30;;
32932;SDS011;19444;50.518;10.870;2022-11-23T02:17:18;10.07;;;3.10;;
32932;SDS011;19444;50.518;10.870;2022-11-23T02:20:17;6.65;;;3.05;;
32932;SDS011;19444;50.518;10.870;2022-11-23T02:23:28;7.20;;;3.75;;
32932;SDS011;19444;50.518;10.870;2022-11-23T02:26:41;7.40;;;2.92;;
32932;SDS011;19444;50.518;10.870;2022-11-23T02:29:39;6.05;;;3.63;;
32932;SDS011;19444;50.518;10.870;2022-11-23T02:32:36;9.40;;;3.65;;
32932;SDS011;19444;50.518;10.870;2022-11-23T02:35:34;7.25;;;3.50;;
32932;SDS011;19444;50.518;10.870;2022-11-23T02:38:31;8.32;;;4.13;;
32932;SDS011;19444;50.518;10.870;2022-11-23T02:41:45;5.72;;;3.78;;
32932;SDS011;19444;50.518;10.870;2022-11-23T02:44:58;8.57;;;3.90;;
32932;SDS011;19444;50.518;10.870;2022-11-23T02:48:15;7.30;;;3.72;;
32932;SDS011;19444;50.518;10.870;2022-11-23T02:51:13;5.03;;;3.28;;
32932;SDS011;19444;50.518;10.870;2022-11-23T02:54:10;8.38;;;4.10;;
32932;SDS011;19444;50.518;10.870;2022-11-23T02:57:07;6.05;;;2.60;;
32932;SDS011;19444;50.518;10.870;2022-11-23T03:00:05;6.22;;;3.70;;
32932;SDS011;19444;50.518;10.870;2022-11-23T03:03:03;6.00;;;4.05;;
32932;SDS011;19444;50.518;10.870;2022-11-23T03:06:00;9.80;;;3.13;;
32932;SDS011;19444;50.518;10.870;2022-11-23T03:08:57;6.57;;;3.35;;
32932;SDS011;19444;50.518;10.870;2022-11-23T03:11:54;8.00;;;3.55;;
32932;SDS011;19444;50.518;10.870;2022-11-23T03:14:51;7.65;;;3.00;;
32932;SDS011;19444;50.518;10.870;2022-11-23T03:17:48;6.05;;;3.50;;
32932;SDS011;19444;50.518;10.870;2022-11-23T03:20:45;7.85;;;3.55;;
32932;SDS011;19444;50.518;10.870;2022-11-23T03:23:42;4.55;;;3.05;;
32932;SDS011;19444;50.518;10.870;2022-11-23T03:26:39;8.18;;;3.80;;
32932;SDS011;19444;50.518;10.870;2022-11-23T03:29:36;5.30;;;3.05;;
32932;SDS011;19444;50.518;10.870;2022-11-23T03:32:33;7.43;;;3.40;;
32932;SDS011;19444;50.518;10.870;2022-11-23T03:35:31;9.52;;;3.95;;
32932;SDS011;19444;50.518;10.870;2022-11-23T03:38:28;8.02;;;3.40;;
32932;SDS011;19444;50.518;10.870;2022-11-23T03:41:25;4.63;;;3.10;;
32932;SDS011;19444;50.518;10.870;2022-11-23T03:44:22;6.22;;;2.67;;
32932;SDS011;19444;50.518;10.870;2022-11-23T03:47:20;8.20;;;3.38;;
32932;SDS011;19444;50.518;10.870;2022-11-23T03:50:16;11.48;;;3.60;;
32932;SDS011;19444;50.518;10.870;2022-11-23T03:53:13;7.45;;;3.10;;
32932;SDS011;19444;50.518;10.870;2022-11-23T03:56:10;10.07;;;2.83;;
32932;SDS011;19444;50.518;10.870;2022-11-23T03:59:08;8.70;;;3.17;;
32932;SDS011;19444;50.518;10.870;2022-11-23T04:02:05;5.28;;;2.60;;
32932;SDS011;19444;50.518;10.870;2022-11-23T04:05:03;5.10;;;2.88;;
32932;SDS011;19444;50.518;10.870;2022-11-23T04:08:00;8.35;;;3.15;;
32932;SDS011;19444;50.518;10.870;2022-11-23T04:10:58;4.43;;;2.85;;
32932;SDS011;19444;50.518;10.870;2022-11-23T04:13:55;6.60;;;3.03;;
32932;SDS011;19444;50.518;10.870;2022-11-23T04:16:52;4.30;;;2.72;;
32932;SDS011;19444;50.518;10.870;2022-11-23T04:19:49;9.40;;;4.53;;
32932;SDS011;19444;50.518;10.870;2022-11-23T04:22:46;5.07;;;3.03;;
32932;SDS011;19444;50.518;10.870;2022-11-23T04:25:43;7.50;;;2.92;;
32932;SDS011;19444;50.518;10.870;2022-11-23T04:28:41;6.57;;;2.47;;
32932;SDS011;19444;50.518;10.870;2022-11-23T04:31:38;5.32;;;2.35;;
32932;SDS011;19444;50.518;10.870;2022-11-23T04:34:35;8.02;;;3.20;;
32932;SDS011;19444;50.518;10.870;2022-11-23T04:37:32;9.25;;;3.03;;
32932;SDS011;19444;50.518;10.870;2022-11-23T04:40:29;6.68;;;2.70;;
32932;SDS011;19444;50.518;10.870;2022-11-23T04:43:26;5.63;;;3.00;;
32932;SDS011;19444;50.518;10.870;2022-11-23T04:46:23;5.15;;;3.10;;
32932;SDS011;19444;50.518;10.870;2022-11-23T04:49:21;5.55;;;2.83;;
32932;SDS011;19444;50.518;10.870;2022-11-23T04:52:17;6.13;;;2.92;;
32932;SDS011;19444;50.518;10.870;2022-11-23T04:55:14;5.68;;;2.70;;
32932;SDS011;19444;50.518;10.870;2022-11-23T04:58:11;4.80;;;2.88;;
32932;SDS011;19444;50.518;10.870;2022-11-23T05:01:08;6.20;;;3.45;;
32932;SDS011;19444;50.518;10.870;2022-11-23T05:04:05;6.72;;;2.97;;
32932;SDS011;19444;50.518;10.870;2022-11-23T05:07:03;3.83;;;3.13;;
32932;SDS011;19444;50.518;10.870;2022-11-23T05:10:00;6.72;;;3.05;;
32932;SDS011;19444;50.518;10.870;2022-11-23T05:12:57;5.63;;;2.83;;
32932;SDS011;19444;50.518;10.870;2022-11-23T05:15:54;4.95;;;2.90;;
32932;SDS011;19444;50.518;10.870;2022-11-23T05:18:50;7.85;;;2.85;;
32932;SDS011;19444;50.518;10.870;2022-11-23T05:21:47;6.03;;;3.17;;
32932;SDS011;19444;50.518;10.870;2022-11-23T05:24:44;5.82;;;3.05;;
32932;SDS011;19444;50.518;10.870;2022-11-23T05:27:41;5.00;;;3.08;;
32932;SDS011;19444;50.518;10.870;2022-11-23T05:30:38;4.45;;;3.20;;
32932;SDS011;19444;50.518;10.870;2022-11-23T05:33:35;10.13;;;5.30;;
32932;SDS011;19444;50.518;10.870;2022-11-23T05:36:32;5.85;;;3.88;;
32932;SDS011;19444;50.518;10.870;2022-11-23T05:39:32;11.60;;;4.75;;
32932;SDS011;19444;50.518;10.870;2022-11-23T05:42:29;6.75;;;3.20;;
32932;SDS011;19444;50.518;10.870;2022-11-23T05:45:27;6.82;;;3.38;;
32932;SDS011;19444;50.518;10.870;2022-11-23T05:48:24;7.75;;;3.80;;
32932;SDS011;19444;50.518;10.870;2022-11-23T05:51:22;9.15;;;3.65;;
32932;SDS011;19444;50.518;10.870;2022-11-23T05:54:19;9.98;;;4.53;;
32932;SDS011;19444;50.518;10.870;2022-11-23T05:57:16;5.97;;;3.63;;
32932;SDS011;19444;50.518;10.870;2022-11-23T06:00:13;5.30;;;3.30;;
32932;SDS011;19444;50.518;10.870;2022-11-23T06:03:10;5.78;;;3.22;;
32932;SDS011;19444;50.518;10.870;2022-11-23T06:06:07;8.65;;;3.40;;
32932;SDS011;19444;50.518;10.870;2022-11-23T06:09:04;9.60;;;3.80;;
32932;SDS011;19444;50.518;10.870;2022-11-23T06:12:01;7.95;;;4.28;;
32932;SDS011;19444;50.518;10.870;2022-11-23T06:14:59;6.65;;;2.75;;
32932;SDS011;19444;50.518;10.870;2022-11-23T06:17:59;6.18;;;2.92;;
32932;SDS011;19444;50.518;10.870;2022-11-23T06:21:00;9.82;;;4.60;;
32932;SDS011;19444;50.518;10.870;2022-11-23T06:23:57;22.03;;;11.20;;
32932;SDS011;19444;50.518;10.870;2022-11-23T06:26:54;17.92;;;8.95;;
32932;SDS011;19444;50.518;10.870;2022-11-23T06:29:50;40.65;;;22.55;;
32932;SDS011;19444;50.518;10.870;2022-11-23T06:32:47;21.40;;;11.05;;
32932;SDS011;19444;50.518;10.870;2022-11-23T06:35:52;23.75;;;13.52;;
32932;SDS011;19444;50.518;10.870;2022-11-23T06:38:49;7.85;;;3.00;;
32932;SDS011;19444;50.518;10.870;2022-11-23T06:41:46;10.98;;;5.88;;
32932;SDS011;19444;50.518;10.870;2022-11-23T06:44:43;7.88;;;4.40;;
32932;SDS011;19444;50.518;10.870;2022-11-23T06:47:40;5.88;;;3.03;;
32932;SDS011;19444;50.518;10.870;2022-11-23T06:50:37;7.72;;;4.22;;
32932;SDS011;19444;50.518;10.870;2022-11-23T06:53:34;13.38;;;7.22;;
32932;SDS011;19444;50.518;10.870;2022-11-23T06:56:31;12.98;;;4.05;;
32932;SDS011;19444;50.518;10.870;2022-11-23T06:59:28;22.88;;;12.27;;
32932;SDS011;19444;50.518;10.870;2022-11-23T07:02:25;13.55;;;5.65;;
32932;SDS011;19444;50.518;10.870;2022-11-23T07:05:23;9.93;;;3.55;;
32932;SDS011;19444;50.518;10.870;2022-11-23T07:08:20;8.00;;;3.55;;
32932;SDS011;19444;50.518;10.870;2022-11-23T07:11:17;7.53;;;3.40;;
32932;SDS011;19444;50.518;10.870;2022-11-23T07:14:14;8.25;;;3.83;;
32932;SDS011;19444;50.518;10.870;2022-11-23T07:17:11;3.92;;;2.92;;
32932;SDS011;19444;50.518;10.870;2022-11-23T07:20:12;5.45;;;3.22;;
32932;SDS011;19444;50.518;10.870;2022-11-23T07:23:10;6.78;;;2.78;;
32932;SDS011;19444;50.518;10.870;2022-11-23T07:26:07;10.60;;;4.55;;
32932;SDS011;19444;50.518;10.870;2022-11-23T07:29:04;47.83;;;17.58;;
32932;SDS011;19444;50.518;10.870;2022-11-23T07:32:01;12.70;;;5.78;;
32932;SDS011;19444;50.518;10.870;2022-11-23T07:34:59;18.40;;;8.10;;
32932;SDS011;19444;50.518;10.870;2022-11-23T07:37:56;8.63;;;3.88;;
32932;SDS011;19444;50.518;10.870;2022-11-23T07:40:53;12.35;;;4.63;;
32932;SDS011;19444;50.518;10.870;2022-11-23T07:43:50;7.05;;;3.00;;
32932;SDS011;19444;50.518;10.870;2022-11-23T07:46:47;7.03;;;3.63;;
32932;SDS011;19444;50.518;10.870;2022-11-23T07:49:44;5.03;;;3.05;;
32932;SDS011;19444;50.518;10.870;2022-11-23T07:52:40;13.23;;;4.10;;
32932;SDS011;19444;50.518;10.870;2022-11-23T07:55:37;15.25;;;9.05;;
32932;SDS011;19444;50.518;10.870;2022-11-23T07:58:34;12.52;;;7.10;;
32932;SDS011;19444;50.518;10.870;2022-11-23T08:01:31;6.80;;;3.90;;
32932;SDS011;19444;50.518;10.870;2022-11-23T08:04:28;9.27;;;3.75;;
32932;SDS011;19444;50.518;10.870;2022-11-23T08:07:26;7.97;;;3.45;;
32932;SDS011;19444;50.518;10.870;2022-11-23T08:10:23;20.75;;;7.25;;
32932;SDS011;19444;50.518;10.870;2022-11-23T08:13:20;10.85;;;5.95;;
32932;SDS011;19444;50.518;10.870;2022-11-23T08:16:17;8.40;;;5.53;;
32932;SDS011;19444;50.518;10.870;2022-11-23T08:19:15;7.60;;;4.38;;
32932;SDS011;19444;50.518;10.870;2022-11-23T08:22:12;9.13;;;4.13;;
32932;SDS011;19444;50.518;10.870;2022-11-23T08:25:11;5.55;;;2.38;;
32932;SDS011;19444;50.518;10.870;2022-11-23T08:28:08;5.88;;;2.78;;
32932;SDS011;19444;50.518;10.870;2022-11-23T08:31:06;5.80;;;2.85;;
32932;SDS011;19444;50.518;10.870;2022-11-23T08:34:06;6.13;;;2.42;;
32932;SDS011;19444;50.518;10.870;2022-11-23T08:37:03;6.43;;;2.70;;
32932;SDS011;19444;50.518;10.870;2022-11-23T08:40:00;7.65;;;2.30;;
32932;SDS011;19444;50.518;10.870;2022-11-23T08:42:57;7.47;;;2.65;;
32932;SDS011;19444;50.518;10.870;2022-11-23T08:45:54;5.60;;;2.67;;
32932;SDS011;19444;50.518;10.870;2022-11-23T08:49:02;5.60;;;2.55;;
32932;SDS011;19444;50.518;10.870;2022-11-23T08:52:00;7.55;;;2.53;;
32932;SDS011;19444;50.518;10.870;2022-11-23T08:54:57;11.30;;;4.75;;
32932;SDS011;19444;50.518;10.870;2022-11-23T08:57:54;10.40;;;3.78;;
32932;SDS011;19444;50.518;10.870;2022-11-23T09:00:52;8.15;;;3.42;;
32932;SDS011;19444;50.518;10.870;2022-11-23T09:03:49;3.72;;;2.70;;
32932;SDS011;19444;50.518;10.870;2022-11-23T09:06:46;3.95;;;2.70;;
32932;SDS011;19444;50.518;10.870;2022-11-23T09:09:43;5.55;;;4.20;;
32932;SDS011;19444;50.518;10.870;2022-11-23T09:12:40;6.75;;;3.70;;
32932;SDS011;19444;50.518;10.870;2022-11-23T09:15:37;4.32;;;2.20;;
32932;SDS011;19444;50.518;10.870;2022-11-23T09:18:34;6.95;;;3.35;;
32932;SDS011;19444;50.518;10.870;2022-11-23T09:21:32;7.30;;;2.70;;
32932;SDS011;19444;50.518;10.870;2022-11-23T09:24:30;5.80;;;2.58;;
32932;SDS011;19444;50.518;10.870;2022-11-23T09:27:28;7.70;;;3.10;;
32932;SDS011;19444;50.518;10.870;2022-11-23T09:30:25;7.05;;;3.22;;
32932;SDS011;19444;50.518;10.870;2022-11-23T09:33:23;6.47;;;2.65;;
32932;SDS011;19444;50.518;10.870;2022-11-23T09:36:21;5.55;;;2.92;;
32932;SDS011;19444;50.518;10.870;2022-11-23T09:39:21;8.30;;;4.28;;
32932;SDS011;19444;50.518;10.870;2022-11-23T09:42:27;7.00;;;3.20;;
32932;SDS011;19444;50.518;10.870;2022-11-23T09:45:51;4.47;;;2.28;;
32932;SDS011;19444;50.518;10.870;2022-11-23T09:52:14;28.10;;;11.48;;
32932;SDS011;19444;50.518;10.870;2022-11-23T09:55:16;10.52;;;5.07;;
32932;SDS011;19444;50.518;10.870;2022-11-23T09:58:19;9.85;;;2.55;;
32932;SDS011;19444;50.518;10.870;2022-11-23T10:01:17;5.00;;;2.87;;
32932;SDS011;19444;50.518;10.870;2022-11-23T10:04:16;7.30;;;2.60;;
32932;SDS011;19444;50.518;10.870;2022-11-23T10:27:05;5.90;;;2.72;;
32932;SDS011;19444;50.518;10.870;2022-11-23T10:30:12;8.85;;;2.67;;
32932;SDS011;19444;50.518;10.870;2022-11-23T10:33:20;7.75;;;4.13;;
32932;SDS011;19444;50.518;10.870;2022-11-23T10:36:40;5.68;;;2.92;;
32932;SDS011;19444;50.518;10.870;2022-11-23T10:39:38;4.18;;;2.50;;
32932;SDS011;19444;50.518;10.870;2022-11-23T10:42:37;6.15;;;2.88;;
32932;SDS011;19444;50.518;10.870;2022-11-23T10:45:42;6.32;;;2.33;;
32932;SDS011;19444;50.518;10.870;2022-11-23T10:48:39;5.05;;;2.50;;
32932;SDS011;19444;50.518;10.870;2022-11-23T10:51:39;4.50;;;2.73;;
32932;SDS011;19444;50.518;10.870;2022-11-23T10:54:50;8.80;;;3.70;;
32932;SDS011;19444;50.518;10.870;2022-11-23T10:57:50;7.70;;;3.55;;
32932;SDS011;19444;50.518;10.870;2022-11-23T11:00:47;9.93;;;5.35;;
32932;SDS011;19444;50.518;10.870;2022-11-23T11:04:00;6.38;;;2.28;;
32932;SDS011;19444;50.518;10.870;2022-11-23T11:07:09;10.38;;;3.67;;
32932;SDS011;19444;50.518;10.870;2022-11-23T11:10:38;14.50;;;5.57;;
32932;SDS011;19444;50.518;10.870;2022-11-23T11:17:24;18.20;;;7.35;;
32932;SDS011;19444;50.518;10.870;2022-11-23T11:20:28;16.92;;;6.75;;
32932;SDS011;19444;50.518;10.870;2022-11-23T11:23:30;25.23;;;10.02;;
32932;SDS011;19444;50.518;10.870;2022-11-23T11:26:29;10.85;;;4.68;;
32932;SDS011;19444;50.518;10.870;2022-11-23T11:32:41;11.57;;;3.22;;
32932;SDS011;19444;50.518;10.870;2022-11-23T11:35:51;4.43;;;2.00;;
32932;SDS011;19444;50.518;10.870;2022-11-23T11:38:51;3.13;;;1.80;;
32932;SDS011;19444;50.518;10.870;2022-11-23T11:42:17;7.60;;;2.80;;
32932;SDS011;19444;50.518;10.870;2022-11-23T11:45:30;5.38;;;2.38;;
32932;SDS011;19444;50.518;10.870;2022-11-23T11:48:35;8.27;;;3.50;;
32932;SDS011;19444;50.518;10.870;2022-11-23T11:51:42;10.95;;;4.18;;
32932;SDS011;19444;50.518;10.870;2022-11-23T12:01:24;5.65;;;2.38;;
32932;SDS011;19444;50.518;10.870;2022-11-23T12:04:40;13.57;;;4.88;;
32932;SDS011;19444;50.518;10.870;2022-11-23T12:07:57;5.65;;;2.00;;
32932;SDS011;19444;50.518;10.870;2022-11-23T12:11:01;10.13;;;3.28;;
32932;SDS011;19444;50.518;10.870;2022-11-23T12:14:01;4.82;;;1.98;;
32932;SDS011;19444;50.518;10.870;2022-11-23T12:23:42;10.45;;;2.25;;
32932;SDS011;19444;50.518;10.870;2022-11-23T12:30:46;6.63;;;2.90;;
32932;SDS011;19444;50.518;10.870;2022-11-23T12:44:26;8.50;;;2.65;;
32932;SDS011;19444;50.518;10.870;2022-11-23T12:58:28;24.25;;;9.80;;
32932;SDS011;19444;50.518;10.870;2022-11-23T13:01:33;29.50;;;14.10;;
32932;SDS011;19444;50.518;10.870;2022-11-23T13:08:11;17.63;;;8.35;;
32932;SDS011;19444;50.518;10.870;2022-11-23T13:14:59;35.92;;;17.58;;
32932;SDS011;19444;50.518;10.870;2022-11-23T13:22:18;28.42;;;11.77;;
32932;SDS011;19444;50.518;10.870;2022-11-23T13:25:26;22.13;;;10.40;;
32932;SDS011;19444;50.518;10.870;2022-11-23T13:28:28;7.97;;;2.20;;
32932;SDS011;19444;50.518;10.870;2022-11-23T13:31:27;6.95;;;3.63;;
32932;SDS011;19444;50.518;10.870;2022-11-23T13:34:42;9.00;;;2.55;;
32932;SDS011;19444;50.518;10.870;2022-11-23T13:44:30;7.28;;;2.40;;
32932;SDS011;19444;50.518;10.870;2022-11-23T13:47:28;6.20;;;1.88;;
32932;SDS011;19444;50.518;10.870;2022-11-23T13:50:25;5.63;;;2.15;;
32932;SDS011;19444;50.518;10.870;2022-11-23T13:56:35;9.70;;;2.75;;
32932;SDS011;19444;50.518;10.870;2022-11-23T13:59:36;7.88;;;2.97;;
32932;SDS011;19444;50.518;10.870;2022-11-23T14:02:33;5.75;;;2.22;;
32932;SDS011;19444;50.518;10.870;2022-11-23T14:05:33;9.05;;;2.22;;
32932;SDS011;19444;50.518;10.870;2022-11-23T14:12:45;7.60;;;2.50;;
32932;SDS011;19444;50.518;10.870;2022-11-23T14:16:11;2.83;;;1.63;;
32932;SDS011;19444;50.518;10.870;2022-11-23T14:19:20;6.25;;;1.52;;
32932;SDS011;19444;50.518;10.870;2022-11-23T14:23:15;4.18;;;1.23;;
32932;SDS011;19444;50.518;10.870;2022-11-23T14:27:03;4.20;;;1.40;;
32932;SDS011;19444;50.518;10.870;2022-11-23T14:34:17;9.02;;;2.70;;
32932;SDS011;19444;50.518;10.870;2022-11-23T14:41:18;3.10;;;0.95;;
32932;SDS011;19444;50.518;10.870;2022-11-23T14:44:26;3.13;;;0.90;;
32932;SDS011;19444;50.518;10.870;2022-11-23T14:47:32;2.90;;;1.00;;
32932;SDS011;19444;50.518;10.870;2022-11-23T14:50:29;5.22;;;1.35;;
32932;SDS011;19444;50.518;10.870;2022-11-23T14:53:48;5.03;;;1.50;;
32932;SDS011;19444;50.518;10.870;2022-11-23T14:56:49;5.50;;;1.70;;
32932;SDS011;19444;50.518;10.870;2022-11-23T15:00:00;6.85;;;1.25;;
32932;SDS011;19444;50.518;10.870;2022-11-23T15:03:06;96.53;;;39.58;;
32932;SDS011;19444;50.518;10.870;2022-11-23T15:06:36;29.45;;;11.90;;
32932;SDS011;19444;50.518;10.870;2022-11-23T15:09:47;10.02;;;1.95;;
32932;SDS011;19444;50.518;10.870;2022-11-23T15:13:00;7.68;;;3.40;;
32932;SDS011;19444;50.518;10.870;2022-11-23T15:15:57;11.18;;;5.30;;
32932;SDS011;19444;50.518;10.870;2022-11-23T15:18:58;13.73;;;6.40;;
32932;SDS011;19444;50.518;10.870;2022-11-23T15:21:55;23.60;;;10.93;;
32932;SDS011;19444;50.518;10.870;2022-11-23T15:24:53;27.55;;;16.48;;
32932;SDS011;19444;50.518;10.870;2022-11-23T15:28:01;51.00;;;29.73;;
32932;SDS011;19444;50.518;10.870;2022-11-23T15:30:58;30.25;;;18.65;;
32932;SDS011;19444;50.518;10.870;2022-11-23T15:33:56;50.80;;;32.08;;
32932;SDS011;19444;50.518;10.870;2022-11-23T15:36:58;28.45;;;16.95;;
32932;SDS011;19444;50.518;10.870;2022-11-23T15:39:57;37.05;;;27.30;;
32932;SDS011;19444;50.518;10.870;2022-11-23T15:42:55;23.15;;;12.20;;
32932;SDS011;19444;50.518;10.870;2022-11-23T15:48:49;25.67;;;13.88;;
32932;SDS011;19444;50.518;10.870;2022-11-23T15:51:57;130.52;;;76.95;;
32932;SDS011;19444;50.518;10.870;2022-11-23T15:54:56;57.13;;;34.50;;
32932;SDS011;19444;50.518;10.870;2022-11-23T15:58:05;232.43;;;131.40;;
32932;SDS011;19444;50.518;10.870;2022-11-23T16:01:05;358.67;;;202.77;;
32932;SDS011;19444;50.518;10.870;2022-11-23T16:04:23;84.72;;;48.13;;
32932;SDS011;19444;50.518;10.870;2022-11-23T16:07:47;39.72;;;21.95;;
32932;SDS011;19444;50.518;10.870;2022-11-23T16:10:53;55.97;;;32.47;;
32932;SDS011;19444;50.518;10.870;2022-11-23T16:13:50;45.50;;;25.90;;
32932;SDS011;19444;50.518;10.870;2022-11-23T16:16:57;60.83;;;31.48;;
32932;SDS011;19444;50.518;10.870;2022-11-23T16:20:11;47.55;;;23.58;;
32932;SDS011;19444;50.518;10.870;2022-11-23T16:23:15;17.15;;;10.05;;
32932;SDS011;19444;50.518;10.870;2022-11-23T16:26:16;23.20;;;12.90;;
32932;SDS011;19444;50.518;10.870;2022-11-23T16:29:19;201.18;;;94.15;;
32932;SDS011;19444;50.518;10.870;2022-11-23T16:32:23;216.88;;;102.45;;
32932;SDS011;19444;50.518;10.870;2022-11-23T16:35:26;36.17;;;20.02;;
32932;SDS011;19444;50.518;10.870;2022-11-23T16:38:23;84.38;;;41.95;;
32932;SDS011;19444;50.518;10.870;2022-11-23T16:41:20;197.55;;;95.28;;
32932;SDS011;19444;50.518;10.870;2022-11-23T16:44:17;183.85;;;83.30;;
32932;SDS011;19444;50.518;10.870;2022-11-23T16:50:14;131.18;;;66.50;;
32932;SDS011;19444;50.518;10.870;2022-11-23T16:53:13;62.10;;;35.25;;
32932;SDS011;19444;50.518;10.870;2022-11-23T16:56:23;43.10;;;25.58;;
32932;SDS011;19444;50.518;10.870;2022-11-23T16:59:22;49.28;;;26.50;;
32932;SDS011;19444;50.518;10.870;2022-11-23T17:02:18;87.95;;;46.13;;
32932;SDS011;19444;50.518;10.870;2022-11-23T17:05:16;35.67;;;20.98;;
32932;SDS011;19444;50.518;10.870;2022-11-23T17:08:15;59.00;;;34.03;;
32932;SDS011;19444;50.518;10.870;2022-11-23T17:11:20;50.72;;;29.42;;
32932;SDS011;19444;50.518;10.870;2022-11-23T17:14:20;57.38;;;36.42;;
32932;SDS011;19444;50.518;10.870;2022-11-23T17:17:24;41.08;;;23.42;;
32932;SDS011;19444;50.518;10.870;2022-11-23T17:20:21;36.97;;;21.25;;
32932;SDS011;19444;50.518;10.870;2022-11-23T17:23:19;19.80;;;10.88;;
32932;SDS011;19444;50.518;10.870;2022-11-23T17:29:32;24.00;;;14.15;;
32932;SDS011;19444;50.518;10.870;2022-11-23T17:32:35;26.75;;;16.75;;
32932;SDS011;19444;50.518;10.870;2022-11-23T17:35:32;29.77;;;18.38;;
32932;SDS011;19444;50.518;10.870;2022-11-23T17:38:33;13.15;;;8.07;;
32932;SDS011;19444;50.518;10.870;2022-11-23T17:41:31;16.75;;;9.45;;
32932;SDS011;19444;50.518;10.870;2022-11-23T17:44:28;20.58;;;11.98;;
32932;SDS011;19444;50.518;10.870;2022-11-23T17:47:26;39.53;;;21.05;;
32932;SDS011;19444;50.518;10.870;2022-11-23T17:50:25;114.68;;;50.50;;
32932;SDS011;19444;50.518;10.870;2022-11-23T17:53:23;22.23;;;11.70;;
32932;SDS011;19444;50.518;10.870;2022-11-23T17:56:21;17.73;;;11.90;;
32932;SDS011;19444;50.518;10.870;2022-11-23T17:59:20;20.20;;;10.27;;
32932;SDS011;19444;50.518;10.870;2022-11-23T18:02:17;15.00;;;9.20;;
32932;SDS011;19444;50.518;10.870;2022-11-23T18:05:15;31.67;;;17.63;;
32932;SDS011;19444;50.518;10.870;2022-11-23T18:08:17;31.75;;;18.17;;
32932;SDS011;19444;50.518;10.870;2022-11-23T18:11:13;19.30;;;8.70;;
32932;SDS011;19444;50.518;10.870;2022-11-23T18:14:10;21.23;;;12.80;;
32932;SDS011;19444;50.518;10.870;2022-11-23T18:17:07;14.68;;;9.05;;
32932;SDS011;19444;50.518;10.870;2022-11-23T18:20:05;16.10;;;8.75;;
32932;SDS011;19444;50.518;10.870;2022-11-23T18:23:03;19.33;;;11.63;;
32932;SDS011;19444;50.518;10.870;2022-11-23T18:26:01;18.83;;;13.13;;
32932;SDS011;19444;50.518;10.870;2022-11-23T18:29:16;9.77;;;5.65;;
32932;SDS011;19444;50.518;10.870;2022-11-23T18:32:13;10.68;;;6.57;;
32932;SDS011;19444;50.518;10.870;2022-11-23T18:35:11;11.95;;;7.35;;
32932;SDS011;19444;50.518;10.870;2022-11-23T18:38:07;19.60;;;11.10;;
32932;SDS011;19444;50.518;10.870;2022-11-23T18:41:04;51.90;;;32.95;;
32932;SDS011;19444;50.518;10.870;2022-11-23T18:44:02;141.15;;;85.18;;
32932;SDS011;19444;50.518;10.870;2022-11-23T18:46:59;68.00;;;39.75;;
32932;SDS011;19444;50.518;10.870;2022-11-23T18:49:56;98.60;;;50.45;;
32932;SDS011;19444;50.518;10.870;2022-11-23T18:53:01;19.40;;;11.63;;
32932;SDS011;19444;50.518;10.870;2022-11-23T18:56:02;18.33;;;7.47;;
32932;SDS011;19444;50.518;10.870;2022-11-23T18:59:00;17.63;;;10.90;;
32932;SDS011;19444;50.518;10.870;2022-11-23T19:01:57;14.05;;;7.50;;
32932;SDS011;19444;50.518;10.870;2022-11-23T19:04:54;16.15;;;9.30;;
32932;SDS011;19444;50.518;10.870;2022-11-23T19:07:52;23.98;;;15.68;;
32932;SDS011;19444;50.518;10.870;2022-11-23T19:10:49;26.13;;;14.18;;
32932;SDS011;19444;50.518;10.870;2022-11-23T19:13:48;16.95;;;8.80;;
32932;SDS011;19444;50.518;10.870;2022-11-23T19:16:47;16.52;;;10.15;;
32932;SDS011;19444;50.518;10.870;2022-11-23T19:19:44;24.27;;;12.13;;
32932;SDS011;19444;50.518;10.870;2022-11-23T19:22:41;23.10;;;14.30;;
32932;SDS011;19444;50.518;10.870;2022-11-23T19:25:38;23.13;;;13.95;;
32932;SDS011;19444;50.518;10.870;2022-11-23T19:28:36;15.40;;;10.27;;
32932;SDS011;19444;50.518;10.870;2022-11-23T19:31:33;12.02;;;7.68;;